createdAt,value
2022-12-18T00:04:26.923Z,101163.59
2022-12-18T00:09:40.274Z,101175.67
2022-12-18T00:14:51.877Z,101177.62
2022-12-18T00:20:00.030Z,101180.40
2022-12-18T00:25:09.157Z,101181.77
2022-12-18T00:30:18.145Z,101184.14
2022-12-18T00:35:26.818Z,101196.30
2022-12-18T00:40:34.840Z,101193.90
2022-12-18T00:45:43.082Z,101195.96
2022-12-18T00:50:53.297Z,101206.90
2022-12-18T00:56:01.621Z,101217.66
2022-12-18T01:01:11.052Z,101223.60
2022-12-18T01:06:19.852Z,101227.80
2022-12-18T01:11:28.888Z,101234.09
2022-12-18T01:16:37.452Z,101238.52
2022-12-18T01:21:46.329Z,101240.34
2022-12-18T01:26:55.561Z,101241.17
2022-12-18T01:32:04.372Z,101244.34
2022-12-18T01:37:12.875Z,101245.61
2022-12-18T01:42:21.093Z,101248.77
2022-12-18T01:47:34.785Z,101254.79
2022-12-18T01:52:49.647Z,101261.69
2022-12-18T01:58:01.643Z,101268.19
2022-12-18T02:03:09.854Z,101268.02
2022-12-18T02:08:23.444Z,101275.55
2022-12-18T02:13:41.944Z,101280.92
2022-12-18T02:18:54.778Z,101287.35
2022-12-18T02:24:20.905Z,101297.09
2022-12-18T02:29:33.288Z,101299.20
2022-12-18T02:34:45.836Z,101304.86
2022-12-18T02:39:59.744Z,101312.24
2022-12-18T02:45:09.610Z,101319.15
2022-12-18T02:50:23.775Z,101322.80
2022-12-18T02:55:46.259Z,101324.91
2022-12-18T03:01:02.684Z,101338.13
2022-12-18T03:06:16.516Z,101343.02
2022-12-18T03:11:45.382Z,101348.83
2022-12-18T03:16:58.036Z,101361.30
2022-12-18T03:22:09.985Z,101361.29
2022-12-18T03:27:29.098Z,101364.02
2022-12-18T03:32:43.494Z,101369.98
2022-12-18T03:37:52.377Z,101374.71
2022-12-18T03:43:07.162Z,101380.30
2022-12-18T03:48:24.755Z,101379.09
2022-12-18T03:53:41.356Z,101387.28
2022-12-18T03:58:53.032Z,101393.60
2022-12-18T04:04:06.545Z,101415.30
2022-12-18T04:09:16.997Z,101425.64
2022-12-18T04:14:28.151Z,101433.06
2022-12-18T04:19:37.989Z,101440.35
2022-12-18T04:24:46.406Z,101438.06
2022-12-18T04:30:01.467Z,101450.73
2022-12-18T04:35:13.373Z,101460.72
2022-12-18T04:40:23.647Z,101469.62
2022-12-18T04:45:32.551Z,101477.20
2022-12-18T04:50:40.983Z,101484.54
2022-12-18T04:55:49.341Z,101490.33
2022-12-18T05:00:57.550Z,101494.05
2022-12-18T05:06:06.029Z,101493.14
2022-12-18T05:11:17.074Z,101492.71
2022-12-18T05:16:25.584Z,101500.30
2022-12-18T05:21:33.858Z,101509.77
2022-12-18T05:26:42.413Z,101509.77
2022-12-18T05:31:50.631Z,101510.31
2022-12-18T05:36:59.248Z,101520.38
2022-12-18T05:42:07.885Z,101531.63
2022-12-18T05:47:16.357Z,101543.36
2022-12-18T05:52:24.495Z,101550.38
2022-12-18T05:57:33.336Z,101554.85
2022-12-18T06:02:41.718Z,101560.73
2022-12-18T06:07:50.315Z,101558.64
2022-12-18T06:12:58.572Z,101566.61
2022-12-18T06:18:07.291Z,101572.79
2022-12-18T06:23:15.801Z,101586.59
2022-12-18T06:28:24.634Z,101592.09
2022-12-18T06:33:32.982Z,101589.44
2022-12-18T06:38:43.759Z,101603.54
2022-12-18T06:43:54.618Z,101606.95
2022-12-18T06:49:07.065Z,101601.24
2022-12-18T06:54:15.315Z,101594.84
2022-12-18T06:59:23.937Z,101609.96
2022-12-18T07:04:34.924Z,101601.11
2022-12-18T07:09:43.167Z,101606.05
2022-12-18T07:14:51.589Z,101610.45
2022-12-18T07:20:00.202Z,101617.85
2022-12-18T07:25:10.110Z,101622.55
2022-12-18T07:30:18.606Z,101629.02
2022-12-18T07:35:26.789Z,101634.34
2022-12-18T07:40:35.361Z,101623.64
2022-12-18T07:45:43.768Z,101652.83
2022-12-18T07:50:52.400Z,101655.92
2022-12-18T07:56:28.597Z,101652.83
2022-12-18T08:01:31.956Z,101664.45
2022-12-18T08:06:42.619Z,101668.67
2022-12-18T08:11:55.762Z,101670.94
2022-12-18T08:17:03.929Z,101672.23
2022-12-18T08:22:13.198Z,101674.67
2022-12-18T08:27:29.451Z,101690.07
2022-12-18T08:32:39.747Z,101680.44
2022-12-18T08:37:48.333Z,101689.59
2022-12-18T08:43:14.445Z,101696.02
2022-12-18T08:48:22.830Z,101710.20
2022-12-18T08:53:35.802Z,101714.50
2022-12-18T08:58:44.671Z,101715.22
2022-12-18T09:03:56.067Z,101723.85
2022-12-18T09:09:04.316Z,101711.27
2022-12-18T09:14:14.017Z,101713.41
2022-12-18T09:19:22.210Z,101706.84
2022-12-18T09:24:30.452Z,101705.73
2022-12-18T09:29:39.041Z,101706.33
2022-12-18T09:34:47.104Z,101702.22
2022-12-18T09:39:55.681Z,101712.45
2022-12-18T09:45:05.753Z,101715.52
2022-12-18T09:50:28.025Z,101714.23
2022-12-18T09:55:37.556Z,101729.15
2022-12-18T10:00:54.152Z,101743.38
2022-12-18T10:06:11.102Z,101743.16
2022-12-18T10:11:40.424Z,101759.48
2022-12-18T10:17:04.078Z,101761.48
2022-12-18T10:22:22.500Z,101757.84
2022-12-18T10:27:33.729Z,101758.80
2022-12-18T10:32:42.209Z,101765.31
2022-12-18T10:38:06.773Z,101771.45
2022-12-18T10:43:18.744Z,101767.69
2022-12-18T10:48:27.414Z,101774.52
2022-12-18T10:53:38.279Z,101768.26
2022-12-18T10:58:58.289Z,101764.77
2022-12-18T11:04:12.417Z,101758.38
2022-12-18T11:09:26.619Z,101751.40
2022-12-18T11:14:43.503Z,101750.58
2022-12-18T11:20:00.641Z,101756.80
2022-12-18T11:25:36.619Z,101754.59
2022-12-18T11:30:45.865Z,101756.65
2022-12-18T11:35:56.681Z,101755.85
2022-12-18T11:41:14.440Z,101748.59
2022-12-18T11:46:34.165Z,101746.65
2022-12-18T11:51:49.075Z,101754.90
2022-12-18T11:57:10.322Z,101758.40
2022-12-18T12:02:41.091Z,101768.25
2022-12-18T12:07:59.947Z,101763.83
2022-12-18T12:13:26.477Z,101762.29
2022-12-18T12:18:48.485Z,101764.59
2022-12-18T12:24:05.481Z,101779.30
2022-12-18T12:29:33.035Z,101793.79
2022-12-18T12:34:47.753Z,101792.73
2022-12-18T12:39:57.585Z,101796.20
2022-12-18T12:45:08.347Z,101802.02
2022-12-18T12:50:22.096Z,101804.80
2022-12-18T12:55:32.180Z,101828.29
2022-12-18T13:00:50.440Z,101827.86
2022-12-18T13:06:03.439Z,101848.02
2022-12-18T13:12:00.451Z,101855.38
2022-12-18T13:17:37.899Z,101868.65
2022-12-18T13:22:49.798Z,101856.82
2022-12-18T13:28:16.191Z,101848.73
2022-12-18T13:39:38.701Z,101859.41
2022-12-18T13:44:48.698Z,101858.28
2022-12-18T13:49:57.748Z,101863.52
2022-12-18T13:55:10.810Z,101873.39
2022-12-18T14:00:33.547Z,101880.08
2022-12-18T14:05:44.363Z,101881.75
2022-12-18T14:10:54.932Z,101886.86
2022-12-18T14:16:06.954Z,101886.27
2022-12-18T14:21:23.650Z,101887.73
2022-12-18T14:26:34.581Z,101892.85
2022-12-18T14:31:42.912Z,101899.31
2022-12-18T14:36:58.392Z,101893.89
2022-12-18T14:42:07.118Z,101911.31
2022-12-18T14:47:20.838Z,101925.82
2022-12-18T14:52:34.764Z,101926.26
2022-12-18T14:57:44.863Z,101921.99
2022-12-18T15:02:56.740Z,101920.82
2022-12-18T15:08:05.536Z,101928.42
2022-12-18T15:13:26.023Z,101938.26
2022-12-18T15:18:37.897Z,101939.10
2022-12-18T15:23:52.528Z,101936.84
2022-12-18T15:29:04.279Z,101941.27
2022-12-18T15:34:25.210Z,101947.98
2022-12-18T15:39:33.545Z,101938.85
2022-12-18T15:44:42.348Z,101931.28
2022-12-18T15:49:51.138Z,101942.63
2022-12-18T15:55:19.021Z,101941.39
2022-12-18T16:00:28.064Z,101940.12
2022-12-18T16:05:36.857Z,101942.29
2022-12-18T16:10:45.555Z,101941.70
2022-12-18T16:15:54.267Z,101935.20
2022-12-18T16:21:03.520Z,101930.23
2022-12-18T16:26:12.883Z,101927.31
2022-12-18T16:31:21.112Z,101922.70
2022-12-18T16:37:58.797Z,101911.69
2022-12-18T16:43:39.466Z,101912.30
2022-12-18T16:48:48.165Z,101908.23
2022-12-18T16:53:57.517Z,101915.27
2022-12-18T16:59:08.335Z,101911.91
2022-12-18T17:04:16.774Z,101920.90
2022-12-18T17:09:27.246Z,101935.49
2022-12-18T17:14:37.013Z,101942.59
2022-12-18T17:19:45.624Z,101934.77
2022-12-18T17:24:54.299Z,101927.11
2022-12-18T17:30:02.431Z,101934.58
2022-12-18T17:35:11.848Z,101942.51
2022-12-18T17:40:20.404Z,101946.20
2022-12-18T17:45:29.477Z,101945.85
2022-12-18T17:50:39.010Z,101940.20
2022-12-18T17:55:55.251Z,101942.45
2022-12-18T18:01:07.485Z,101927.06
2022-12-18T18:06:14.232Z,101946.14
2022-12-18T18:11:43.857Z,101949.86
2022-12-18T18:16:54.042Z,101957.33
2022-12-18T18:22:04.753Z,101954.94
2022-12-18T18:27:13.606Z,101959.48
2022-12-18T18:32:21.989Z,101962.27
2022-12-18T18:37:30.242Z,101968.73
2022-12-18T18:42:38.881Z,101974.73
2022-12-18T18:47:47.168Z,101972.80
2022-12-18T18:52:56.763Z,101980.38
2022-12-18T18:58:05.571Z,101986.92
2022-12-18T19:03:15.810Z,101991.39
2022-12-18T19:08:24.665Z,101985.78
2022-12-18T19:13:35.264Z,101974.52
2022-12-18T19:18:42.990Z,101955.20
2022-12-18T19:23:51.982Z,101979.42
2022-12-18T19:29:04.860Z,101979.11
2022-12-18T19:34:14.071Z,101975.75
2022-12-18T19:39:23.303Z,101976.04
2022-12-18T19:44:31.472Z,101961.27
2022-12-18T19:49:40.358Z,101980.96
2022-12-18T19:54:49.319Z,101979.34
2022-12-18T19:59:57.739Z,101976.83
2022-12-18T20:05:06.620Z,101977.75
2022-12-18T20:10:17.770Z,101965.80
2022-12-18T20:15:27.490Z,101958.67
2022-12-18T20:20:36.368Z,101962.50
2022-12-18T20:25:45.143Z,101962.81
2022-12-18T20:30:53.668Z,101966.55
2022-12-18T20:36:07.739Z,101963.95
2022-12-18T20:41:21.031Z,101967.98
2022-12-18T20:46:29.566Z,101971.91
2022-12-18T20:51:37.803Z,101982.28
2022-12-18T20:56:46.459Z,101987.91
2022-12-18T21:01:59.062Z,101990.95
2022-12-18T21:07:07.515Z,101993.49
2022-12-18T21:12:40.239Z,101990.17
2022-12-18T21:17:55.215Z,101988.97
2022-12-18T21:23:14.277Z,101984.58
2022-12-18T21:28:26.834Z,101984.59
2022-12-18T21:33:34.942Z,101977.73
2022-12-18T21:38:43.204Z,101972.73
2022-12-18T21:44:09.517Z,101966.41
2022-12-18T21:49:21.705Z,101962.66
2022-12-18T21:54:31.200Z,101961.01
2022-12-18T21:59:42.426Z,101947.80
2022-12-18T22:04:51.201Z,101944.73
2022-12-18T22:09:59.568Z,101930.39
2022-12-18T22:15:11.425Z,101946.36
2022-12-18T22:20:20.400Z,101943.13
2022-12-18T22:25:28.947Z,101937.09
2022-12-18T22:30:37.316Z,101926.09
2022-12-18T22:35:45.929Z,101925.68
2022-12-18T22:40:54.801Z,101931.59
2022-12-18T22:46:12.500Z,101936.34
2022-12-18T22:51:22.058Z,101939.05
2022-12-18T22:56:30.305Z,101944.46
2022-12-18T23:01:38.964Z,101941.39
2022-12-18T23:06:48.903Z,101941.73
2022-12-18T23:11:57.270Z,101939.59
2022-12-18T23:17:05.344Z,101947.77
2022-12-18T23:22:13.914Z,101951.37
2022-12-18T23:27:22.227Z,101941.15
2022-12-18T23:32:30.846Z,101935.59
2022-12-18T23:43:10.304Z,101939.36
2022-12-18T23:48:18.574Z,101936.75
2022-12-18T23:53:27.161Z,101943.79
2022-12-18T23:58:35.340Z,101952.91
